Terminal Aerodrome Forecast
Issued by NWS Sioux Falls, SD

Home | Current Version | Previous Version | Text Only | Print | Product List | Glossary On
Versions: 1 2 3 4 5 6 7 8 9 10 11 12 13 14 15 16 17 18 19 20 21
000
FTUS43 KFSD 241318 AAA
TAFHON
TAF AMD
KHON 241318Z 2413/2512 04005KT 4SM BR OVC018
     FM241500 08008KT P6SM OVC023
     FM250100 04005KT P6SM OVC015
     FM250500 33005KT P6SM OVC015=

USA.gov is the U.S. government's official web portal to all federal, state and local government web resources and services.